Glade Spring, Virginia
Current Conditions -  °F | °C
As of 7:35 AM on Monday 22 Dec 2014 (Local Time) from KVJI Reporting Station
Overcast Overcast  
Wind Chill: 35°   Ceiling: 4200
Heat Index: 42°   Visibility: 10mi
Dew Point: 37°   Wind: 13mph
Humidity: 83%   Direction: 90°E
Pressure: 30.05"   Gusts: NA
Location:  36.79°N, 81.77°W
Report Text: KVJI 221235Z AUTO 09011KT 10SM SCT034 OVC042 05/03 A3005 RMK AO2 T00530027
Loading
Personal Weather Stations






























Interactive Weather Map New forecast layout! Learn more

10-Day Weather Forecast

Advertisements
Track Severe Weather on mobile